sensor_id;sensor_type;location;lat;lon;timestamp;temperature;humidity
11304;DHT22;5707;49.588;12.148;2024-02-15T00:00:20;6.90;99.90
11304;DHT22;5707;49.588;12.148;2024-02-15T00:02:47;6.90;99.90
11304;DHT22;5707;49.588;12.148;2024-02-15T00:05:13;6.90;99.90
11304;DHT22;5707;49.588;12.148;2024-02-15T00:07:41;6.90;99.90
11304;DHT22;5707;49.588;12.148;2024-02-15T00:10:07;6.90;99.90
11304;DHT22;5707;49.588;12.148;2024-02-15T00:12:34;6.90;99.90
11304;DHT22;5707;49.588;12.148;2024-02-15T00:14:59;6.90;99.90
11304;DHT22;5707;49.588;12.148;2024-02-15T00:17:27;6.90;99.90
11304;DHT22;5707;49.588;12.148;2024-02-15T00:19:54;6.90;99.90
11304;DHT22;5707;49.588;12.148;2024-02-15T00:22:20;7.00;99.90
11304;DHT22;5707;49.588;12.148;2024-02-15T00:24:47;7.00;99.90
11304;DHT22;5707;49.588;12.148;2024-02-15T00:27:14;7.00;99.90
11304;DHT22;5707;49.588;12.148;2024-02-15T00:29:40;7.00;99.90
11304;DHT22;5707;49.588;12.148;2024-02-15T00:32:06;7.00;99.90
11304;DHT22;5707;49.588;12.148;2024-02-15T00:34:32;7.00;99.90
11304;DHT22;5707;49.588;12.148;2024-02-15T00:36:58;6.90;99.90
11304;DHT22;5707;49.588;12.148;2024-02-15T00:39:24;7.00;99.90
11304;DHT22;5707;49.588;12.148;2024-02-15T00:41:50;6.90;99.90
11304;DHT22;5707;49.588;12.148;2024-02-15T00:44:16;6.90;99.90
11304;DHT22;5707;49.588;12.148;2024-02-15T00:46:43;7.00;99.90
11304;DHT22;5707;49.588;12.148;2024-02-15T00:49:11;7.00;99.90
11304;DHT22;5707;49.588;12.148;2024-02-15T00:51:37;7.00;99.90
11304;DHT22;5707;49.588;12.148;2024-02-15T00:54:03;7.00;99.90
11304;DHT22;5707;49.588;12.148;2024-02-15T00:56:29;7.00;99.90
11304;DHT22;5707;49.588;12.148;2024-02-15T00:58:59;7.00;99.90
11304;DHT22;5707;49.588;12.148;2024-02-15T01:01:26;7.00;99.90
11304;DHT22;5707;49.588;12.148;2024-02-15T01:03:51;7.00;99.90
11304;DHT22;5707;49.588;12.148;2024-02-15T01:06:17;6.90;99.90
11304;DHT22;5707;49.588;12.148;2024-02-15T01:08:43;6.90;99.90
11304;DHT22;5707;49.588;12.148;2024-02-15T01:11:09;6.90;99.90
11304;DHT22;5707;49.588;12.148;2024-02-15T01:13:35;6.90;99.90
11304;DHT22;5707;49.588;12.148;2024-02-15T01:16:01;6.90;99.90
11304;DHT22;5707;49.588;12.148;2024-02-15T01:18:29;6.90;99.90
11304;DHT22;5707;49.588;12.148;2024-02-15T01:20:57;6.90;99.90
11304;DHT22;5707;49.588;12.148;2024-02-15T01:23:22;6.90;99.90
11304;DHT22;5707;49.588;12.148;2024-02-15T01:25:48;6.80;99.90
11304;DHT22;5707;49.588;12.148;2024-02-15T01:28:14;6.90;99.90
11304;DHT22;5707;49.588;12.148;2024-02-15T01:30:40;6.90;99.90
11304;DHT22;5707;49.588;12.148;2024-02-15T01:33:09;6.80;99.90
11304;DHT22;5707;49.588;12.148;2024-02-15T01:35:36;6.90;99.90
11304;DHT22;5707;49.588;12.148;2024-02-15T01:38:02;6.90;99.90
11304;DHT22;5707;49.588;12.148;2024-02-15T01:40:28;6.90;99.90
11304;DHT22;5707;49.588;12.148;2024-02-15T01:42:53;6.90;99.90
11304;DHT22;5707;49.588;12.148;2024-02-15T01:45:19;6.90;99.90
11304;DHT22;5707;49.588;12.148;2024-02-15T01:47:45;6.90;99.90
11304;DHT22;5707;49.588;12.148;2024-02-15T01:50:11;6.80;99.90
11304;DHT22;5707;49.588;12.148;2024-02-15T01:52:38;6.90;99.90
11304;DHT22;5707;49.588;12.148;2024-02-15T01:55:05;6.80;99.90
11304;DHT22;5707;49.588;12.148;2024-02-15T01:57:36;6.90;99.90
11304;DHT22;5707;49.588;12.148;2024-02-15T02:00:06;6.80;99.90
11304;DHT22;5707;49.588;12.148;2024-02-15T02:02:34;6.80;99.90
11304;DHT22;5707;49.588;12.148;2024-02-15T02:05:01;6.90;99.90
11304;DHT22;5707;49.588;12.148;2024-02-15T02:07:27;6.90;99.90
11304;DHT22;5707;49.588;12.148;2024-02-15T02:09:52;6.80;99.90
11304;DHT22;5707;49.588;12.148;2024-02-15T02:12:18;6.90;99.90
11304;DHT22;5707;49.588;12.148;2024-02-15T02:14:43;6.90;99.90
11304;DHT22;5707;49.588;12.148;2024-02-15T02:17:15;6.90;99.90
11304;DHT22;5707;49.588;12.148;2024-02-15T02:19:42;6.80;99.90
11304;DHT22;5707;49.588;12.148;2024-02-15T02:22:09;6.90;99.90
11304;DHT22;5707;49.588;12.148;2024-02-15T02:27:26;6.80;99.90
11304;DHT22;5707;49.588;12.148;2024-02-15T02:29:52;6.80;99.90
11304;DHT22;5707;49.588;12.148;2024-02-15T02:32:18;6.80;99.90
11304;DHT22;5707;49.588;12.148;2024-02-15T02:34:44;6.80;99.90
11304;DHT22;5707;49.588;12.148;2024-02-15T02:37:09;6.80;99.90
11304;DHT22;5707;49.588;12.148;2024-02-15T02:39:35;6.80;99.90
11304;DHT22;5707;49.588;12.148;2024-02-15T02:42:01;6.80;99.90
11304;DHT22;5707;49.588;12.148;2024-02-15T02:44:26;6.80;99.90
11304;DHT22;5707;49.588;12.148;2024-02-15T02:46:52;6.80;99.90
11304;DHT22;5707;49.588;12.148;2024-02-15T02:49:18;6.80;99.90
11304;DHT22;5707;49.588;12.148;2024-02-15T02:51:43;6.80;99.90
11304;DHT22;5707;49.588;12.148;2024-02-15T02:54:10;6.80;99.90
11304;DHT22;5707;49.588;12.148;2024-02-15T02:56:36;6.80;99.90
11304;DHT22;5707;49.588;12.148;2024-02-15T02:59:02;6.80;99.90
11304;DHT22;5707;49.588;12.148;2024-02-15T03:01:28;6.80;99.90
11304;DHT22;5707;49.588;12.148;2024-02-15T03:03:55;6.80;99.90
11304;DHT22;5707;49.588;12.148;2024-02-15T03:06:21;6.80;99.90
11304;DHT22;5707;49.588;12.148;2024-02-15T03:08:50;6.80;99.90
11304;DHT22;5707;49.588;12.148;2024-02-15T03:11:19;6.80;99.90
11304;DHT22;5707;49.588;12.148;2024-02-15T03:13:47;6.80;99.90
11304;DHT22;5707;49.588;12.148;2024-02-15T03:16:13;6.90;99.90
11304;DHT22;5707;49.588;12.148;2024-02-15T03:18:39;6.90;99.90
11304;DHT22;5707;49.588;12.148;2024-02-15T03:21:06;6.90;99.90
11304;DHT22;5707;49.588;12.148;2024-02-15T03:23:34;6.80;99.90
11304;DHT22;5707;49.588;12.148;2024-02-15T03:26:01;6.90;99.90
11304;DHT22;5707;49.588;12.148;2024-02-15T03:28:28;6.90;99.90
11304;DHT22;5707;49.588;12.148;2024-02-15T03:30:53;6.90;99.90
11304;DHT22;5707;49.588;12.148;2024-02-15T03:33:19;6.90;99.90
11304;DHT22;5707;49.588;12.148;2024-02-15T03:35:46;6.90;99.90
11304;DHT22;5707;49.588;12.148;2024-02-15T03:38:11;6.90;99.90
11304;DHT22;5707;49.588;12.148;2024-02-15T03:40:38;6.90;99.90
11304;DHT22;5707;49.588;12.148;2024-02-15T03:43:08;6.90;99.90
11304;DHT22;5707;49.588;12.148;2024-02-15T03:45:34;6.90;99.90
11304;DHT22;5707;49.588;12.148;2024-02-15T03:47:59;6.90;99.90
11304;DHT22;5707;49.588;12.148;2024-02-15T03:50:25;6.90;99.90
11304;DHT22;5707;49.588;12.148;2024-02-15T03:52:50;6.90;99.90
11304;DHT22;5707;49.588;12.148;2024-02-15T03:55:16;7.00;99.90
11304;DHT22;5707;49.588;12.148;2024-02-15T03:57:42;7.00;99.90
11304;DHT22;5707;49.588;12.148;2024-02-15T04:00:12;7.00;99.90
11304;DHT22;5707;49.588;12.148;2024-02-15T04:02:39;7.00;99.90
11304;DHT22;5707;49.588;12.148;2024-02-15T04:05:09;6.90;99.90
11304;DHT22;5707;49.588;12.148;2024-02-15T04:07:35;7.00;99.90
11304;DHT22;5707;49.588;12.148;2024-02-15T04:10:03;7.00;99.90
11304;DHT22;5707;49.588;12.148;2024-02-15T04:12:28;7.00;99.90
11304;DHT22;5707;49.588;12.148;2024-02-15T04:14:54;7.00;99.90
11304;DHT22;5707;49.588;12.148;2024-02-15T04:17:20;7.00;99.90
11304;DHT22;5707;49.588;12.148;2024-02-15T04:19:48;7.00;99.90
11304;DHT22;5707;49.588;12.148;2024-02-15T04:22:15;7.00;99.90
11304;DHT22;5707;49.588;12.148;2024-02-15T04:24:42;7.00;99.90
11304;DHT22;5707;49.588;12.148;2024-02-15T04:27:07;7.00;99.90
11304;DHT22;5707;49.588;12.148;2024-02-15T04:29:34;7.00;99.90
11304;DHT22;5707;49.588;12.148;2024-02-15T04:31:59;7.00;99.90
11304;DHT22;5707;49.588;12.148;2024-02-15T04:34:25;7.00;99.90
11304;DHT22;5707;49.588;12.148;2024-02-15T04:36:51;7.00;99.90
11304;DHT22;5707;49.588;12.148;2024-02-15T04:39:20;7.00;99.90
11304;DHT22;5707;49.588;12.148;2024-02-15T04:41:53;7.00;99.90
11304;DHT22;5707;49.588;12.148;2024-02-15T04:44:19;7.00;99.90
11304;DHT22;5707;49.588;12.148;2024-02-15T04:46:52;6.90;99.90
11304;DHT22;5707;49.588;12.148;2024-02-15T04:49:19;6.90;99.90
11304;DHT22;5707;49.588;12.148;2024-02-15T04:51:45;6.90;99.90
11304;DHT22;5707;49.588;12.148;2024-02-15T04:54:11;6.90;99.90
11304;DHT22;5707;49.588;12.148;2024-02-15T04:56:40;6.90;99.90
11304;DHT22;5707;49.588;12.148;2024-02-15T04:59:07;6.90;99.90
11304;DHT22;5707;49.588;12.148;2024-02-15T05:01:41;6.90;99.90
11304;DHT22;5707;49.588;12.148;2024-02-15T05:04:11;6.90;99.90
11304;DHT22;5707;49.588;12.148;2024-02-15T05:06:37;6.90;99.90
11304;DHT22;5707;49.588;12.148;2024-02-15T05:09:04;7.00;99.90
11304;DHT22;5707;49.588;12.148;2024-02-15T05:11:33;6.90;99.90
11304;DHT22;5707;49.588;12.148;2024-02-15T05:14:01;6.90;99.90
11304;DHT22;5707;49.588;12.148;2024-02-15T05:16:28;7.00;99.90
11304;DHT22;5707;49.588;12.148;2024-02-15T05:18:53;6.90;99.90
11304;DHT22;5707;49.588;12.148;2024-02-15T05:21:19;7.00;99.90
11304;DHT22;5707;49.588;12.148;2024-02-15T05:23:45;7.00;99.90
11304;DHT22;5707;49.588;12.148;2024-02-15T05:26:11;6.90;99.90
11304;DHT22;5707;49.588;12.148;2024-02-15T05:28:45;6.90;99.90
11304;DHT22;5707;49.588;12.148;2024-02-15T05:31:16;6.90;99.90
11304;DHT22;5707;49.588;12.148;2024-02-15T05:33:54;6.80;99.90
11304;DHT22;5707;49.588;12.148;2024-02-15T05:36:21;6.80;99.90
11304;DHT22;5707;49.588;12.148;2024-02-15T05:38:51;6.80;99.90
11304;DHT22;5707;49.588;12.148;2024-02-15T05:41:20;6.80;99.90
11304;DHT22;5707;49.588;12.148;2024-02-15T05:43:47;6.70;99.90
11304;DHT22;5707;49.588;12.148;2024-02-15T05:46:19;6.80;99.90
11304;DHT22;5707;49.588;12.148;2024-02-15T05:48:47;6.80;99.90
11304;DHT22;5707;49.588;12.148;2024-02-15T05:51:12;6.70;99.90
11304;DHT22;5707;49.588;12.148;2024-02-15T05:53:38;6.80;99.90
11304;DHT22;5707;49.588;12.148;2024-02-15T05:56:05;6.80;99.90
11304;DHT22;5707;49.588;12.148;2024-02-15T05:58:32;6.70;99.90
11304;DHT22;5707;49.588;12.148;2024-02-15T06:00:58;6.70;99.90
11304;DHT22;5707;49.588;12.148;2024-02-15T06:03:31;6.70;99.90
11304;DHT22;5707;49.588;12.148;2024-02-15T06:06:00;6.70;99.90
11304;DHT22;5707;49.588;12.148;2024-02-15T06:08:28;6.70;99.90
11304;DHT22;5707;49.588;12.148;2024-02-15T06:10:55;6.80;99.90
11304;DHT22;5707;49.588;12.148;2024-02-15T06:13:22;6.80;99.90
11304;DHT22;5707;49.588;12.148;2024-02-15T06:15:47;6.80;99.90
11304;DHT22;5707;49.588;12.148;2024-02-15T06:18:18;6.90;99.90
11304;DHT22;5707;49.588;12.148;2024-02-15T06:20:49;6.90;99.90
11304;DHT22;5707;49.588;12.148;2024-02-15T06:23:19;7.00;99.90
11304;DHT22;5707;49.588;12.148;2024-02-15T06:25:46;7.00;99.90
11304;DHT22;5707;49.588;12.148;2024-02-15T06:28:13;7.00;99.90
11304;DHT22;5707;49.588;12.148;2024-02-15T06:30:45;7.10;99.90
11304;DHT22;5707;49.588;12.148;2024-02-15T06:33:29;7.10;99.90
11304;DHT22;5707;49.588;12.148;2024-02-15T06:36:13;7.20;99.90
11304;DHT22;5707;49.588;12.148;2024-02-15T06:38:58;7.20;99.90
11304;DHT22;5707;49.588;12.148;2024-02-15T06:41:41;7.30;99.90
11304;DHT22;5707;49.588;12.148;2024-02-15T06:44:07;7.30;99.90
11304;DHT22;5707;49.588;12.148;2024-02-15T06:46:33;7.30;99.90
11304;DHT22;5707;49.588;12.148;2024-02-15T06:48:58;7.40;99.90
11304;DHT22;5707;49.588;12.148;2024-02-15T06:51:24;7.40;99.90
11304;DHT22;5707;49.588;12.148;2024-02-15T06:53:50;7.40;99.90
11304;DHT22;5707;49.588;12.148;2024-02-15T06:56:17;7.40;99.90
11304;DHT22;5707;49.588;12.148;2024-02-15T06:58:45;7.40;99.90
11304;DHT22;5707;49.588;12.148;2024-02-15T07:01:11;7.50;99.90
11304;DHT22;5707;49.588;12.148;2024-02-15T07:03:39;7.60;99.90
11304;DHT22;5707;49.588;12.148;2024-02-15T07:06:04;7.60;99.90
11304;DHT22;5707;49.588;12.148;2024-02-15T07:08:31;7.70;99.90
11304;DHT22;5707;49.588;12.148;2024-02-15T07:10:57;7.80;99.90
11304;DHT22;5707;49.588;12.148;2024-02-15T07:13:23;7.90;99.90
11304;DHT22;5707;49.588;12.148;2024-02-15T07:15:52;7.90;99.90
11304;DHT22;5707;49.588;12.148;2024-02-15T07:18:17;8.00;99.90
11304;DHT22;5707;49.588;12.148;2024-02-15T07:20:47;8.00;99.90
11304;DHT22;5707;49.588;12.148;2024-02-15T07:23:13;8.00;99.90
11304;DHT22;5707;49.588;12.148;2024-02-15T07:25:40;8.10;99.90
11304;DHT22;5707;49.588;12.148;2024-02-15T07:28:05;8.10;99.90
11304;DHT22;5707;49.588;12.148;2024-02-15T07:30:31;8.20;99.90
11304;DHT22;5707;49.588;12.148;2024-02-15T07:32:57;8.20;99.90
11304;DHT22;5707;49.588;12.148;2024-02-15T07:35:22;8.20;99.90
11304;DHT22;5707;49.588;12.148;2024-02-15T07:37:54;8.20;99.90
11304;DHT22;5707;49.588;12.148;2024-02-15T07:40:21;8.20;99.90
11304;DHT22;5707;49.588;12.148;2024-02-15T07:42:48;8.20;99.90
11304;DHT22;5707;49.588;12.148;2024-02-15T07:45:14;8.20;99.90
11304;DHT22;5707;49.588;12.148;2024-02-15T07:47:40;8.20;99.90
11304;DHT22;5707;49.588;12.148;2024-02-15T07:50:05;8.20;99.90
11304;DHT22;5707;49.588;12.148;2024-02-15T07:52:32;8.30;99.90
11304;DHT22;5707;49.588;12.148;2024-02-15T07:54:58;8.30;99.90
11304;DHT22;5707;49.588;12.148;2024-02-15T07:57:24;8.40;99.90
11304;DHT22;5707;49.588;12.148;2024-02-15T07:59:50;8.40;99.90
11304;DHT22;5707;49.588;12.148;2024-02-15T08:02:16;8.40;99.90
11304;DHT22;5707;49.588;12.148;2024-02-15T08:04:47;8.50;99.90
11304;DHT22;5707;49.588;12.148;2024-02-15T08:07:13;8.60;99.90
11304;DHT22;5707;49.588;12.148;2024-02-15T08:09:41;8.70;99.90
11304;DHT22;5707;49.588;12.148;2024-02-15T08:12:07;8.80;99.90
11304;DHT22;5707;49.588;12.148;2024-02-15T08:14:32;8.90;99.90
11304;DHT22;5707;49.588;12.148;2024-02-15T08:16:58;9.00;99.90
11304;DHT22;5707;49.588;12.148;2024-02-15T08:19:23;9.10;99.90
11304;DHT22;5707;49.588;12.148;2024-02-15T08:21:49;9.20;99.90
11304;DHT22;5707;49.588;12.148;2024-02-15T08:24:16;9.20;99.90
11304;DHT22;5707;49.588;12.148;2024-02-15T08:26:42;9.20;99.90
11304;DHT22;5707;49.588;12.148;2024-02-15T08:29:08;9.20;99.90
11304;DHT22;5707;49.588;12.148;2024-02-15T08:31:39;9.30;99.90
11304;DHT22;5707;49.588;12.148;2024-02-15T08:34:04;9.30;99.90
11304;DHT22;5707;49.588;12.148;2024-02-15T08:36:31;9.40;99.90
11304;DHT22;5707;49.588;12.148;2024-02-15T08:38:57;9.60;99.90
11304;DHT22;5707;49.588;12.148;2024-02-15T08:41:23;9.80;99.90
11304;DHT22;5707;49.588;12.148;2024-02-15T08:43:52;10.00;99.90
11304;DHT22;5707;49.588;12.148;2024-02-15T08:46:18;10.20;99.90
11304;DHT22;5707;49.588;12.148;2024-02-15T08:48:45;10.50;99.90
11304;DHT22;5707;49.588;12.148;2024-02-15T08:51:12;10.60;99.90
11304;DHT22;5707;49.588;12.148;2024-02-15T08:53:37;10.80;99.90
11304;DHT22;5707;49.588;12.148;2024-02-15T08:56:04;11.00;99.90
11304;DHT22;5707;49.588;12.148;2024-02-15T08:58:30;10.90;99.90
11304;DHT22;5707;49.588;12.148;2024-02-15T09:00:57;11.00;99.90
11304;DHT22;5707;49.588;12.148;2024-02-15T09:03:22;11.00;99.90
11304;DHT22;5707;49.588;12.148;2024-02-15T09:05:51;10.90;99.90
11304;DHT22;5707;49.588;12.148;2024-02-15T09:08:17;10.80;99.90
11304;DHT22;5707;49.588;12.148;2024-02-15T09:10:46;10.90;99.90
11304;DHT22;5707;49.588;12.148;2024-02-15T09:13:12;11.00;99.90
11304;DHT22;5707;49.588;12.148;2024-02-15T09:15:38;11.10;99.90
11304;DHT22;5707;49.588;12.148;2024-02-15T09:18:04;11.10;99.90
11304;DHT22;5707;49.588;12.148;2024-02-15T09:20:30;11.10;99.90
11304;DHT22;5707;49.588;12.148;2024-02-15T09:22:57;11.10;99.90
11304;DHT22;5707;49.588;12.148;2024-02-15T09:25:23;11.20;99.90
11304;DHT22;5707;49.588;12.148;2024-02-15T09:27:50;11.30;99.90
11304;DHT22;5707;49.588;12.148;2024-02-15T09:30:16;11.50;99.90
11304;DHT22;5707;49.588;12.148;2024-02-15T09:32:42;11.70;99.90
11304;DHT22;5707;49.588;12.148;2024-02-15T09:35:09;12.00;99.90
11304;DHT22;5707;49.588;12.148;2024-02-15T09:37:38;12.20;99.90
11304;DHT22;5707;49.588;12.148;2024-02-15T09:40:08;12.30;99.90
11304;DHT22;5707;49.588;12.148;2024-02-15T09:42:35;12.50;99.90
11304;DHT22;5707;49.588;12.148;2024-02-15T09:45:02;12.50;99.90
11304;DHT22;5707;49.588;12.148;2024-02-15T09:47:34;12.30;99.90
11304;DHT22;5707;49.588;12.148;2024-02-15T09:50:01;12.10;99.90
11304;DHT22;5707;49.588;12.148;2024-02-15T09:52:29;12.00;99.90
11304;DHT22;5707;49.588;12.148;2024-02-15T09:54:58;12.10;99.90
11304;DHT22;5707;49.588;12.148;2024-02-15T09:57:26;12.20;99.90
11304;DHT22;5707;49.588;12.148;2024-02-15T09:59:53;12.50;99.90
11304;DHT22;5707;49.588;12.148;2024-02-15T10:02:19;12.70;99.90
11304;DHT22;5707;49.588;12.148;2024-02-15T10:04:45;13.10;99.90
11304;DHT22;5707;49.588;12.148;2024-02-15T10:07:13;13.40;99.90
11304;DHT22;5707;49.588;12.148;2024-02-15T10:09:39;13.40;99.90
11304;DHT22;5707;49.588;12.148;2024-02-15T10:12:08;13.40;99.90
11304;DHT22;5707;49.588;12.148;2024-02-15T10:14:35;13.30;99.90
11304;DHT22;5707;49.588;12.148;2024-02-15T10:17:07;13.00;99.90
11304;DHT22;5707;49.588;12.148;2024-02-15T10:19:39;13.10;99.90
11304;DHT22;5707;49.588;12.148;2024-02-15T10:22:07;13.40;99.90
11304;DHT22;5707;49.588;12.148;2024-02-15T10:24:32;13.70;99.90
11304;DHT22;5707;49.588;12.148;2024-02-15T10:27:02;13.90;99.90
11304;DHT22;5707;49.588;12.148;2024-02-15T10:29:36;14.00;99.90
11304;DHT22;5707;49.588;12.148;2024-02-15T10:32:03;13.80;99.90
11304;DHT22;5707;49.588;12.148;2024-02-15T10:34:29;13.70;99.90
11304;DHT22;5707;49.588;12.148;2024-02-15T10:37:10;13.80;99.90
11304;DHT22;5707;49.588;12.148;2024-02-15T10:39:36;13.90;99.90
11304;DHT22;5707;49.588;12.148;2024-02-15T10:42:03;13.70;99.90
11304;DHT22;5707;49.588;12.148;2024-02-15T10:44:28;13.40;99.90
11304;DHT22;5707;49.588;12.148;2024-02-15T10:46:54;13.30;99.90
11304;DHT22;5707;49.588;12.148;2024-02-15T10:49:24;13.30;99.90
11304;DHT22;5707;49.588;12.148;2024-02-15T10:52:00;13.30;99.90
11304;DHT22;5707;49.588;12.148;2024-02-15T10:54:47;13.30;99.90
11304;DHT22;5707;49.588;12.148;2024-02-15T10:57:21;13.30;99.90
11304;DHT22;5707;49.588;12.148;2024-02-15T10:59:57;13.40;99.90
11304;DHT22;5707;49.588;12.148;2024-02-15T11:02:42;13.40;99.90
11304;DHT22;5707;49.588;12.148;2024-02-15T11:05:10;13.50;99.90
11304;DHT22;5707;49.588;12.148;2024-02-15T11:07:40;13.60;99.90
11304;DHT22;5707;49.588;12.148;2024-02-15T11:10:07;13.70;99.90
11304;DHT22;5707;49.588;12.148;2024-02-15T11:12:34;13.80;99.90
11304;DHT22;5707;49.588;12.148;2024-02-15T11:15:00;14.00;99.90
11304;DHT22;5707;49.588;12.148;2024-02-15T11:22:58;14.50;99.90
11304;DHT22;5707;49.588;12.148;2024-02-15T11:25:33;14.60;99.90
11304;DHT22;5707;49.588;12.148;2024-02-15T11:30:48;14.70;99.90
11304;DHT22;5707;49.588;12.148;2024-02-15T11:36:05;14.80;99.90
11304;DHT22;5707;49.588;12.148;2024-02-15T11:38:31;14.60;99.90
11304;DHT22;5707;49.588;12.148;2024-02-15T11:46:14;14.80;99.90
11304;DHT22;5707;49.588;12.148;2024-02-15T11:48:40;15.00;99.90
11304;DHT22;5707;49.588;12.148;2024-02-15T11:51:06;15.30;99.90
11304;DHT22;5707;49.588;12.148;2024-02-15T11:53:33;15.60;99.90
11304;DHT22;5707;49.588;12.148;2024-02-15T11:56:01;15.60;99.80
11304;DHT22;5707;49.588;12.148;2024-02-15T11:58:32;15.50;98.50
11304;DHT22;5707;49.588;12.148;2024-02-15T12:01:11;15.50;98.80
11304;DHT22;5707;49.588;12.148;2024-02-15T12:03:56;15.40;98.30
11304;DHT22;5707;49.588;12.148;2024-02-15T12:06:40;15.50;98.50
11304;DHT22;5707;49.588;12.148;2024-02-15T12:09:24;15.70;98.70
11304;DHT22;5707;49.588;12.148;2024-02-15T12:12:09;16.10;96.30
11304;DHT22;5707;49.588;12.148;2024-02-15T12:15:01;16.30;95.20
11304;DHT22;5707;49.588;12.148;2024-02-15T12:17:45;16.40;94.40
11304;DHT22;5707;49.588;12.148;2024-02-15T12:20:29;16.60;93.80
11304;DHT22;5707;49.588;12.148;2024-02-15T12:22:55;16.50;94.00
11304;DHT22;5707;49.588;12.148;2024-02-15T12:25:21;16.60;93.50
11304;DHT22;5707;49.588;12.148;2024-02-15T12:27:54;16.80;92.90
11304;DHT22;5707;49.588;12.148;2024-02-15T12:30:20;16.90;92.70
11304;DHT22;5707;49.588;12.148;2024-02-15T12:32:47;17.00;91.90
11304;DHT22;5707;49.588;12.148;2024-02-15T12:35:19;17.10;90.60
11304;DHT22;5707;49.588;12.148;2024-02-15T12:38:01;17.30;89.70
11304;DHT22;5707;49.588;12.148;2024-02-15T12:40:32;17.30;90.20
11304;DHT22;5707;49.588;12.148;2024-02-15T12:42:59;17.50;89.00
11304;DHT22;5707;49.588;12.148;2024-02-15T12:45:26;17.50;86.70
11304;DHT22;5707;49.588;12.148;2024-02-15T12:47:55;17.30;86.00
11304;DHT22;5707;49.588;12.148;2024-02-15T12:50:23;17.10;87.40
11304;DHT22;5707;49.588;12.148;2024-02-15T12:52:50;17.20;85.70
11304;DHT22;5707;49.588;12.148;2024-02-15T12:55:18;17.20;86.50
11304;DHT22;5707;49.588;12.148;2024-02-15T12:57:49;17.30;86.10
11304;DHT22;5707;49.588;12.148;2024-02-15T13:00:26;17.40;83.90
11304;DHT22;5707;49.588;12.148;2024-02-15T13:02:57;17.30;85.20
11304;DHT22;5707;49.588;12.148;2024-02-15T13:05:25;17.20;83.60
11304;DHT22;5707;49.588;12.148;2024-02-15T13:07:52;17.00;82.70
11304;DHT22;5707;49.588;12.148;2024-02-15T13:10:21;16.70;85.60
11304;DHT22;5707;49.588;12.148;2024-02-15T13:12:47;16.50;87.60
11304;DHT22;5707;49.588;12.148;2024-02-15T13:15:14;16.60;86.20
11304;DHT22;5707;49.588;12.148;2024-02-15T13:17:44;16.70;86.60
11304;DHT22;5707;49.588;12.148;2024-02-15T13:20:12;16.90;83.20
11304;DHT22;5707;49.588;12.148;2024-02-15T13:22:39;17.10;74.00
11304;DHT22;5707;49.588;12.148;2024-02-15T13:25:06;17.10;74.20
11304;DHT22;5707;49.588;12.148;2024-02-15T13:27:34;17.00;73.80
11304;DHT22;5707;49.588;12.148;2024-02-15T13:29:59;16.80;74.30
11304;DHT22;5707;49.588;12.148;2024-02-15T13:32:25;16.70;76.20
11304;DHT22;5707;49.588;12.148;2024-02-15T13:34:51;16.70;79.40
11304;DHT22;5707;49.588;12.148;2024-02-15T13:37:20;16.70;79.40
11304;DHT22;5707;49.588;12.148;2024-02-15T13:39:49;16.70;80.90
11304;DHT22;5707;49.588;12.148;2024-02-15T13:42:16;16.70;81.00
11304;DHT22;5707;49.588;12.148;2024-02-15T13:44:43;16.80;80.70
11304;DHT22;5707;49.588;12.148;2024-02-15T13:47:09;16.90;81.20
11304;DHT22;5707;49.588;12.148;2024-02-15T13:49:37;16.80;79.40
11304;DHT22;5707;49.588;12.148;2024-02-15T13:52:02;16.80;79.70
11304;DHT22;5707;49.588;12.148;2024-02-15T13:54:29;16.60;78.50
11304;DHT22;5707;49.588;12.148;2024-02-15T13:56:55;16.30;79.30
11304;DHT22;5707;49.588;12.148;2024-02-15T13:59:22;16.00;81.10
11304;DHT22;5707;49.588;12.148;2024-02-15T14:01:48;15.80;83.80
11304;DHT22;5707;49.588;12.148;2024-02-15T14:04:15;15.70;77.10
11304;DHT22;5707;49.588;12.148;2024-02-15T14:06:41;15.50;77.40
11304;DHT22;5707;49.588;12.148;2024-02-15T14:09:10;15.20;78.60
11304;DHT22;5707;49.588;12.148;2024-02-15T14:11:37;15.10;78.80
11304;DHT22;5707;49.588;12.148;2024-02-15T14:14:03;14.90;77.80
11304;DHT22;5707;49.588;12.148;2024-02-15T14:16:29;14.70;79.10
11304;DHT22;5707;49.588;12.148;2024-02-15T14:18:55;14.50;78.10
11304;DHT22;5707;49.588;12.148;2024-02-15T14:21:20;14.30;81.30
11304;DHT22;5707;49.588;12.148;2024-02-15T14:23:46;14.10;82.30
11304;DHT22;5707;49.588;12.148;2024-02-15T14:26:12;13.90;85.10
11304;DHT22;5707;49.588;12.148;2024-02-15T14:28:37;13.70;86.50
11304;DHT22;5707;49.588;12.148;2024-02-15T14:31:07;13.50;87.90
11304;DHT22;5707;49.588;12.148;2024-02-15T14:33:51;13.30;89.90
11304;DHT22;5707;49.588;12.148;2024-02-15T14:36:17;13.20;90.50
11304;DHT22;5707;49.588;12.148;2024-02-15T14:38:43;13.20;90.70
11304;DHT22;5707;49.588;12.148;2024-02-15T14:41:09;13.10;91.40
11304;DHT22;5707;49.588;12.148;2024-02-15T14:43:36;13.10;91.50
11304;DHT22;5707;49.588;12.148;2024-02-15T14:46:02;13.10;91.80
11304;DHT22;5707;49.588;12.148;2024-02-15T14:48:31;12.90;92.30
11304;DHT22;5707;49.588;12.148;2024-02-15T14:50:57;12.80;93.30
11304;DHT22;5707;49.588;12.148;2024-02-15T14:53:23;12.60;93.40
11304;DHT22;5707;49.588;12.148;2024-02-15T14:55:49;12.50;93.90
11304;DHT22;5707;49.588;12.148;2024-02-15T14:58:15;12.30;94.40
11304;DHT22;5707;49.588;12.148;2024-02-15T15:00:44;12.20;95.60
11304;DHT22;5707;49.588;12.148;2024-02-15T15:03:11;12.10;96.10
11304;DHT22;5707;49.588;12.148;2024-02-15T15:05:40;12.00;97.10
11304;DHT22;5707;49.588;12.148;2024-02-15T15:08:24;11.90;97.40
11304;DHT22;5707;49.588;12.148;2024-02-15T15:11:09;11.80;97.60
11304;DHT22;5707;49.588;12.148;2024-02-15T15:14:04;11.70;98.00
11304;DHT22;5707;49.588;12.148;2024-02-15T15:16:30;11.60;98.70
11304;DHT22;5707;49.588;12.148;2024-02-15T15:18:56;11.40;99.90
11304;DHT22;5707;49.588;12.148;2024-02-15T15:21:21;11.30;99.90
11304;DHT22;5707;49.588;12.148;2024-02-15T15:23:48;11.10;99.90
11304;DHT22;5707;49.588;12.148;2024-02-15T15:26:21;10.90;99.90
11304;DHT22;5707;49.588;12.148;2024-02-15T15:28:48;10.70;99.90
11304;DHT22;5707;49.588;12.148;2024-02-15T15:31:13;10.50;99.90
11304;DHT22;5707;49.588;12.148;2024-02-15T15:33:41;10.40;99.90
11304;DHT22;5707;49.588;12.148;2024-02-15T15:36:06;10.20;99.90
11304;DHT22;5707;49.588;12.148;2024-02-15T15:38:32;10.00;99.90
11304;DHT22;5707;49.588;12.148;2024-02-15T15:40:58;9.90;99.90
11304;DHT22;5707;49.588;12.148;2024-02-15T15:43:24;9.80;99.90
11304;DHT22;5707;49.588;12.148;2024-02-15T15:45:50;9.70;99.90
11304;DHT22;5707;49.588;12.148;2024-02-15T15:48:20;9.50;99.90
11304;DHT22;5707;49.588;12.148;2024-02-15T15:50:45;9.40;99.90
11304;DHT22;5707;49.588;12.148;2024-02-15T15:53:13;9.20;99.90
11304;DHT22;5707;49.588;12.148;2024-02-15T15:55:38;9.10;99.90
11304;DHT22;5707;49.588;12.148;2024-02-15T15:58:04;8.90;99.90
11304;DHT22;5707;49.588;12.148;2024-02-15T16:00:35;8.80;99.90
11304;DHT22;5707;49.588;12.148;2024-02-15T16:03:01;8.60;99.90